Reece, Kansas
Current Conditions -  °F | °C
As of 6:15 AM on Thursday 29 Jan 2015 (Local Time) from KEQA Reporting Station
Overcast Overcast  
Wind Chill: 31°   Ceiling: 2400
Heat Index: 41°   Visibility: 10mi
Dew Point: 32°   Wind: 25mph
Humidity: 70%   Direction: 360°N
Pressure: 30.2"   Gusts: 37mph
Location:  37.8908°N, 96.3726°W
Report Text: KEQA 291215Z AUTO 36022G32KT 10SM OVC024 05/00 A3020 RMK AO2
Loading
Personal Weather Stations






























Interactive Weather Map New forecast layout! Learn more

10-Day Weather Forecast

Advertisements
Track Severe Weather on mobile